Time;durP1;ratioP1;P1;durP2;ratioP2;P2;SDS_P1;SDS_P2;PMS_P1;PMS_P2;Temp;Humidity;BMP_temperature;BMP_pressure;BME280_temperature;BME280_humidity;BME280_pressure;Samples;Min_cycle;Max_cycle;Signal;HPM_P1;HPM_P2
2022/08/29 00:01:37;;;;;;;15.68;7.68;;;;;;;16.54;61.09;102044.72;6165591;23;20001;-96
2022/08/29 00:04:03;;;;;;;16.63;8.07;;;;;;;16.48;61.27;102045.00;6166177;23;20035;-96
2022/08/29 00:09:51;;;;;;;17.10;7.70;;;;;;;16.29;61.92;102042.31;6172174;23;20057;-96
2022/08/29 00:12:20;;;;;;;16.20;7.80;;;;;;;16.25;61.97;102038.03;6170763;23;20001;-96
2022/08/29 00:14:47;;;;;;;19.80;9.25;;;;;;;16.56;62.04;102085.56;6203331;23;20015;-96
2022/08/29 00:17:13;;;;;;;17.60;7.53;;;;;;;16.48;61.54;102071.69;6178792;23;20001;-96
2022/08/29 00:19:38;;;;;;;15.10;8.32;;;;;;;16.21;61.60;102033.75;6179721;23;20064;-96
2022/08/29 00:22:04;;;;;;;16.17;8.07;;;;;;;16.23;61.77;102042.59;6176092;23;20345;-96
2022/08/29 00:24:30;;;;;;;16.70;8.55;;;;;;;16.35;61.49;102059.84;6172795;23;20014;-96
2022/08/29 00:27:00;;;;;;;14.65;8.43;;;;;;;16.16;61.92;102035.78;6170452;23;20123;-96
2022/08/29 00:32:48;;;;;;;15.30;8.88;;;;;;;16.00;61.87;102032.06;6206003;23;20032;-96
2022/08/29 00:35:19;;;;;;;15.02;7.43;;;;;;;16.01;61.61;102026.66;6155254;23;20068;-96
2022/08/29 00:37:44;;;;;;;15.13;8.95;;;;;;;16.02;62.09;102035.50;6176900;23;20040;-96
2022/08/29 00:43:39;;;;;;;20.27;10.00;;;;;;;15.68;63.20;102042.31;6207125;23;20012;-96
2022/08/29 00:49:40;;;;;;;20.30;9.75;;;;;;;15.68;61.46;102055.63;6200141;23;20428;-96
2022/08/29 00:52:12;;;;;;;17.45;9.65;;;;;;;15.73;62.15;102068.78;6170473;23;20060;-96
2022/08/29 00:54:39;;;;;;;;;;;;;;;16.16;59.29;102089.13;6171537;23;20035;-96
2022/08/29 00:57:05;;;;;;;20.88;9.10;;;;;;;15.60;60.98;102044.38;6169931;23;19908;-96
2022/08/29 00:59:35;;;;;;;21.70;10.15;;;;;;;15.50;62.33;102045.72;6167755;23;20005;-96
2022/08/29 01:02:03;;;;;;;17.08;9.55;;;;;;;15.52;61.54;102046.50;6166434;23;20005;-95
2022/08/29 01:04:30;;;;;;;16.35;9.68;;;;;;;15.50;61.44;102048.38;6167179;23;20012;-96
2022/08/29 01:06:56;;;;;;;14.75;8.93;;;;;;;15.37;60.60;102061.31;6165526;23;19997;-96
2022/08/29 01:09:24;;;;;;;16.40;9.30;;;;;;;15.41;60.42;102084.25;6163633;23;20426;-96
2022/08/29 01:14:35;;;;;;;18.15;9.05;;;;;;;15.19;62.82;102076.25;6189629;23;20043;-96
2022/08/29 01:17:02;;;;;;;19.90;9.60;;;;;;;15.26;61.40;102079.56;6163628;23;20043;-96
2022/08/29 01:19:43;;;;;;;22.13;10.10;;;;;;;15.20;62.10;102056.69;6164755;23;20059;-96
2022/08/29 01:22:22;;;;;;;18.13;9.95;;;;;;;15.46;62.64;102105.41;6165489;23;20015;-96
2022/08/29 01:24:51;;;;;;;18.80;10.00;;;;;;;15.08;63.53;102057.19;6165770;23;20001;-96
2022/08/29 01:27:24;;;;;;;17.98;10.05;;;;;;;14.95;63.06;102050.59;6165423;23;20056;-96
2022/08/29 01:29:49;;;;;;;15.80;9.23;;;;;;;14.91;63.66;102049.84;6164854;23;20005;-96
2022/08/29 01:32:15;;;;;;;19.02;9.23;;;;;;;14.95;62.85;102054.13;6162979;23;20005;-95
2022/08/29 01:34:41;;;;;;;17.25;9.32;;;;;;;15.00;61.71;102073.44;6166247;23;20028;-95
2022/08/29 01:37:12;;;;;;;14.60;9.20;;;;;;;14.80;63.47;102073.34;6166533;23;20041;-96
2022/08/29 01:39:41;;;;;;;15.05;8.82;;;;;;;14.67;63.70;102069.41;6169723;23;20001;-96
2022/08/29 01:42:16;;;;;;;15.43;9.15;;;;;;;14.45;62.97;102051.53;6169593;23;20337;-96
2022/08/29 01:44:48;;;;;;;16.00;8.85;;;;;;;14.56;63.12;102053.84;6166920;23;20004;-96
2022/08/29 01:47:13;;;;;;;15.38;8.65;;;;;;;14.68;63.26;102060.50;6164616;23;20009;-96
2022/08/29 01:49:39;;;;;;;15.27;9.07;;;;;;;14.63;63.84;102065.13;6165561;23;20069;-96
2022/08/29 01:52:05;;;;;;;16.48;9.52;;;;;;;14.80;63.39;102068.91;6166356;23;20009;-96
2022/08/29 01:54:31;;;;;;;15.63;9.15;;;;;;;14.76;63.34;102061.09;6167776;23;20005;-96
2022/08/29 01:56:57;;;;;;;13.52;8.63;;;;;;;14.66;63.44;102049.91;6169469;23;20084;-96
2022/08/29 01:59:26;;;;;;;19.00;10.07;;;;;;;14.80;63.77;102084.88;6170356;23;20059;-96
2022/08/29 02:02:01;;;;;;;16.67;9.73;;;;;;;14.68;64.63;102055.19;6167280;23;20445;-96
2022/08/29 02:04:27;;;;;;;17.85;10.18;;;;;;;14.79;65.08;102077.81;6168576;23;20005;-96
2022/08/29 02:06:54;;;;;;;17.70;9.35;;;;;;;14.64;64.50;102051.78;6169546;23;20020;-96
2022/08/29 02:09:20;;;;;;;17.95;10.02;;;;;;;14.66;65.70;102067.69;6170839;23;20032;-96
2022/08/29 02:11:45;;;;;;;17.95;10.38;;;;;;;14.54;65.59;102043.25;6173364;23;20001;-96
2022/08/29 02:14:11;;;;;;;20.10;10.27;;;;;;;14.51;64.10;102047.84;6174178;23;20005;-96
2022/08/29 02:16:37;;;;;;;19.17;10.45;;;;;;;14.59;64.33;102045.75;6195170;23;20005;-96
2022/08/29 02:19:03;;;;;;;18.23;10.57;;;;;;;14.52;64.66;102044.25;6177105;23;20030;-96
2022/08/29 02:21:30;;;;;;;23.65;11.75;;;;;;;14.38;65.87;102041.19;6177155;23;20005;-96
2022/08/29 02:27:18;;;;;;;20.37;10.67;;;;;;;14.12;65.02;102056.28;6211789;23;20123;-96
2022/08/29 02:38:19;;;;;;;18.70;10.70;;;;;;;14.27;66.00;102108.97;6154167;23;20025;-96
2022/08/29 02:40:47;;;;;;;17.48;9.77;;;;;;;14.26;66.04;102115.19;6131337;23;20024;-96
2022/08/29 02:46:44;;;;;;;16.40;10.13;;;;;;;13.74;67.65;102079.75;6158044;23;20012;-96
2022/08/29 02:49:20;;;;;;;18.80;10.88;;;;;;;13.84;66.52;102082.09;6130714;23;20036;-96
2022/08/29 02:55:21;;;;;;;16.60;10.43;;;;;;;13.92;65.37;102082.72;6159246;23;20008;-96
2022/08/29 03:01:24;;;;;;;19.05;11.00;;;;;;;14.28;64.22;102123.13;6159701;23;20101;-96
2022/08/29 03:07:17;;;;;;;22.20;11.57;;;;;;;14.06;65.37;102084.91;6157468;23;20080;-96
2022/08/29 03:09:50;;;;;;;18.30;10.32;;;;;;;13.94;65.74;102068.47;6130999;23;20437;-96
2022/08/29 03:12:18;;;;;;;18.75;10.48;;;;;;;13.89;65.58;102067.72;6131479;23;20414;-96
2022/08/29 03:14:47;;;;;;;18.05;10.55;;;;;;;13.91;65.64;102067.69;6131373;23;20013;-96
2022/08/29 03:17:15;;;;;;;22.27;11.32;;;;;;;13.92;65.10;102062.31;6131190;23;20045;-96
2022/08/29 03:19:41;;;;;;;18.35;10.70;;;;;;;13.98;66.00;102074.53;6131235;23;20350;-96
2022/08/29 03:25:29;;;;;;;21.33;11.52;;;;;;;13.91;66.52;102070.34;6157038;23;20008;-96
2022/08/29 03:27:54;;;;;;;19.80;10.73;;;;;;;14.01;66.11;102085.06;6131269;23;20040;-95
2022/08/29 03:30:23;;;;;;;18.98;11.40;;;;;;;13.78;66.50;102059.28;6131177;23;20382;-95
2022/08/29 03:32:48;;;;;;;19.73;11.57;;;;;;;13.86;67.68;102096.22;6130786;23;20002;-95
2022/08/29 03:35:18;;;;;;;22.15;12.43;;;;;;;13.67;68.29;102098.63;6131156;23;20329;-96
2022/08/29 03:37:50;;;;;;;22.42;11.60;;;;;;;13.39;68.22;102058.81;6131234;23;20002;-96
2022/08/29 03:40:19;;;;;;;19.65;11.35;;;;;;;13.66;66.94;102081.81;6130898;23;20104;-94
2022/08/29 03:42:53;;;;;;;19.20;11.45;;;;;;;13.87;66.26;102092.66;6132100;23;20360;-96
2022/08/29 03:45:29;;;;;;;23.02;11.70;;;;;;;13.79;67.05;102080.47;6132562;23;20016;-95
2022/08/29 03:47:57;;;;;;;18.83;11.52;;;;;;;13.68;67.10;102047.22;6132014;23;20055;-95
2022/08/29 03:50:25;;;;;;;18.45;10.40;;;;;;;13.78;66.46;102057.47;6132030;23;20006;-95
2022/08/29 03:52:54;;;;;;;16.77;10.88;;;;;;;13.83;66.03;102067.09;6131862;23;20009;-96
2022/08/29 03:59:01;;;;;;;15.32;9.57;;;;;;;13.56;65.85;102018.38;6158046;23;20060;-96
2022/08/29 04:05:26;;;;;;;15.60;9.70;;;;;;;13.76;66.07;102066.44;6161220;23;20385;-96
2022/08/29 04:08:08;;;;;;;;;;;;;;;13.93;64.09;102058.72;6136575;23;20422;-96
2022/08/29 04:14:08;;;;;;;14.52;10.15;;;;;;;13.45;66.27;102027.59;6167368;23;20013;-96
2022/08/29 04:20:09;;;;;;;18.98;10.70;;;;;;;13.74;67.51;102070.91;6165422;23;20008;-96
2022/08/29 04:26:05;;;;;;;15.98;10.10;;;;;;;13.49;67.83;102039.84;6164345;23;20120;-96
2022/08/29 04:28:44;;;;;;;19.15;10.88;;;;;;;13.60;68.39;102050.13;6135044;23;20016;-96
2022/08/29 04:34:39;;;;;;;18.88;11.50;;;;;;;13.70;67.29;102062.16;6162650;23;20012;-96
2022/08/29 04:37:13;;;;;;;19.17;10.93;;;;;;;13.58;66.76;102038.69;6134229;23;20009;-96
2022/08/29 04:39:38;;;;;;;19.85;11.48;;;;;;;13.57;66.97;102044.94;6132584;23;20041;-94
2022/08/29 04:45:49;;;;;;;;;;;;;;;;;;;;;
2022/08/29 04:52:00;;;;;;;;;;;;;;;;;;;;;
2022/08/29 04:55:21;;;;;;;20.92;11.60;;;;;;;13.86;66.43;102097.09;6164810;23;20416;-96
2022/08/29 05:01:29;;;;;;;20.88;10.93;;;;;;;13.28;66.69;102057.34;6165499;23;20449;-96
2022/08/29 05:07:52;;;;;;;;;;;;;;;;;;;;;
2022/08/29 05:14:56;;;;;;;15.85;9.57;;;;;;;13.41;67.20;102060.47;6172750;23;20097;-96
2022/08/29 05:21:04;;;;;;;15.25;8.88;;;;;;;13.76;67.39;102099.19;6162949;23;20329;-96
2022/08/29 05:23:42;;;;;;;15.70;9.48;;;;;;;13.52;68.73;102062.78;6110278;23;20013;-96
2022/08/29 05:26:31;;;;;;;15.10;9.38;;;;;;;13.49;68.40;102058.44;6135086;23;20325;-96
2022/08/29 05:32:53;;;;;;;12.95;9.18;;;;;;;13.83;68.16;102115.78;6161429;23;20009;-96
2022/08/29 06:00:11;;;;;;;11.65;6.40;;;;;;;14.54;67.42;102114.25;6046141;23;20549;-96
2022/08/29 06:12:46;;;;;;;11.73;6.45;;;;;;;14.86;68.91;102112.19;6010807;23;20036;-96
2022/08/29 06:18:33;;;;;;;11.68;6.43;;;;;;;15.04;70.13;102140.78;6011260;23;20452;-94
2022/08/29 06:21:14;;;;;;;12.10;6.35;;;;;;;15.06;68.97;102144.25;5987208;23;20008;-96
2022/08/29 06:23:42;;;;;;;13.05;6.10;;;;;;;14.96;69.56;102101.13;5980421;23;20039;-96
2022/08/29 06:26:08;;;;;;;13.63;6.63;;;;;;;15.05;69.46;102105.22;6094424;23;20100;-94
2022/08/29 06:28:36;;;;;;;11.65;5.65;;;;;;;15.23;68.93;102135.63;6131496;23;20429;-96
2022/08/29 06:34:23;;;;;;;12.23;6.53;;;;;;;15.47;68.92;102144.44;6156983;23;20012;-94
2022/08/29 06:36:50;;;;;;;9.82;6.35;;;;;;;15.43;69.52;102145.47;6130905;23;20088;-94
2022/08/29 06:39:16;;;;;;;11.77;6.57;;;;;;;15.22;69.82;102134.75;6131070;23;20024;-95
2022/08/29 06:41:42;;;;;;;10.38;6.15;;;;;;;15.30;68.86;102126.47;6131565;23;20014;-96
2022/08/29 06:44:08;;;;;;;10.88;6.28;;;;;;;15.44;68.38;102125.94;6130829;23;20059;-95
2022/08/29 06:46:37;;;;;;;10.88;6.25;;;;;;;15.53;69.83;102141.56;6130606;23;20002;-95
2022/08/29 06:49:06;;;;;;;12.77;7.30;;;;;;;15.35;70.17;102131.63;6131173;23;20386;-95
2022/08/29 06:51:36;;;;;;;12.45;6.50;;;;;;;15.35;71.02;102147.59;6131249;23;20028;-95
2022/08/29 06:54:03;;;;;;;11.30;6.10;;;;;;;15.47;68.58;102152.44;6131243;23;20009;-95
2022/08/29 06:59:50;;;;;;;9.70;6.47;;;;;;;15.65;68.00;102148.19;6156559;23;20059;-95
2022/08/29 07:02:16;;;;;;;16.65;6.85;;;;;;;15.77;68.32;102140.59;6130420;23;20084;-93
2022/08/29 07:05:03;;;;;;;12.02;6.47;;;;;;;16.01;67.59;102160.03;6135177;23;20381;-95
2022/08/29 07:07:29;;;;;;;10.32;6.93;;;;;;;16.03;67.57;102146.63;6130241;23;20005;-94
2022/08/29 07:09:54;;;;;;;13.05;6.45;;;;;;;16.10;66.62;102144.56;6130750;23;20037;-94
2022/08/29 07:12:31;;;;;;;12.60;6.57;;;;;;;16.29;66.21;102165.06;6130016;23;20397;-93
2022/08/29 07:14:56;;;;;;;10.65;6.78;;;;;;;16.40;66.09;102150.38;6130179;23;20044;-93
2022/08/29 07:17:21;;;;;;;10.30;6.43;;;;;;;16.65;65.36;102147.50;6129798;23;20002;-95
2022/08/29 07:19:47;;;;;;;9.82;6.75;;;;;;;16.80;64.53;102139.69;6129887;23;20041;-94
2022/08/29 07:22:12;;;;;;;11.80;6.65;;;;;;;17.08;64.19;102136.63;6130204;23;20005;-93
2022/08/29 07:24:38;;;;;;;11.98;6.68;;;;;;;17.42;63.21;102126.13;6129214;23;20005;-93
2022/08/29 07:27:03;;;;;;;10.88;6.20;;;;;;;17.76;63.08;102142.28;6155439;23;20330;-94
2022/08/29 07:29:28;;;;;;;10.35;5.00;;;;;;;17.96;58.78;102122.56;6128582;23;20002;-94
2022/08/29 07:31:54;;;;;;;11.98;5.60;;;;;;;18.28;59.22;102144.16;6129075;23;20010;-94
2022/08/29 07:34:19;;;;;;;10.27;4.65;;;;;;;18.58;59.06;102134.50;6154858;23;20016;-94
2022/08/29 07:36:45;;;;;;;8.25;4.10;;;;;;;19.10;55.84;102158.50;6127720;23;20005;-94
2022/08/29 07:39:18;;;;;;;11.18;4.70;;;;;;;19.52;54.48;102145.47;6128031;23;20401;-94
2022/08/29 07:41:44;;;;;;;8.23;3.88;;;;;;;19.73;51.72;102138.91;6126777;23;20514;-93
2022/08/29 07:44:10;;;;;;;7.70;3.70;;;;;;;19.85;51.88;102148.91;6128077;23;20014;-94
2022/08/29 07:46:36;;;;;;;9.52;3.95;;;;;;;20.00;52.06;102128.34;6127651;23;20009;-93
2022/08/29 07:49:03;;;;;;;10.88;3.88;;;;;;;20.27;51.21;102133.91;6127709;23;20009;-94
2022/08/29 07:51:28;;;;;;;6.53;2.95;;;;;;;20.54;47.99;102127.84;6127865;23;20081;-94
2022/08/29 07:53:55;;;;;;;8.18;3.10;;;;;;;20.72;47.64;102140.13;6127446;23;20648;-92
2022/08/29 07:56:26;;;;;;;7.35;3.15;;;;;;;20.85;47.02;102141.09;6126853;23;20445;-94
2022/08/29 07:58:53;;;;;;;8.20;3.25;;;;;;;20.91;47.26;102125.53;6127714;23;20013;-94
2022/08/29 08:01:18;;;;;;;6.50;2.45;;;;;;;20.92;45.59;102133.50;6127343;23;20522;-94
2022/08/29 08:03:45;;;;;;;5.88;2.60;;;;;;;20.89;45.49;102134.56;6126531;23;19997;-95
2022/08/29 08:06:10;;;;;;;6.88;2.78;;;;;;;21.07;45.04;102139.72;6125398;23;19997;-95
2022/08/29 08:08:37;;;;;;;7.50;2.75;;;;;;;21.27;44.89;102136.66;6124348;23;20092;-94
2022/08/29 08:11:05;;;;;;;4.97;2.42;;;;;;;21.39;43.21;102126.94;6124316;23;20006;-94
2022/08/29 08:13:31;;;;;;;4.50;2.45;;;;;;;21.60;42.81;102135.44;6124468;23;20471;-95
2022/08/29 08:15:56;;;;;;;3.72;2.28;;;;;;;21.81;42.97;102141.22;6123212;23;20088;-94
2022/08/29 08:18:28;;;;;;;7.45;2.72;;;;;;;21.83;42.64;102137.47;6126697;23;20059;-96
2022/08/29 08:20:54;;;;;;;5.97;2.35;;;;;;;21.77;42.28;102132.47;6124836;23;20005;-93
2022/08/29 08:23:20;;;;;;;6.78;2.55;;;;;;;21.65;42.74;102125.22;6126154;23;20089;-94
2022/08/29 08:25:46;;;;;;;4.25;2.70;;;;;;;21.62;42.91;102130.81;6122362;23;20035;-94
2022/08/29 08:28:12;;;;;;;5.43;2.35;;;;;;;21.82;42.46;102121.38;6124094;23;20139;-93
2022/08/29 08:30:38;;;;;;;7.78;2.70;;;;;;;22.06;42.61;102133.22;6098219;23;20027;-94
2022/08/29 08:33:06;;;;;;;3.80;2.20;;;;;;;22.25;42.01;102129.28;6126192;23;20092;-93
2022/08/29 08:35:37;;;;;;;6.95;3.25;;;;;;;22.54;42.20;102135.34;6126392;23;20001;-94
2022/08/29 08:38:04;;;;;;;7.95;3.10;;;;;;;22.77;40.57;102129.19;6125929;23;20056;-94
2022/08/29 08:40:31;;;;;;;6.68;3.70;;;;;;;23.13;40.06;102138.34;6125533;23;20509;-95
2022/08/29 08:43:01;;;;;;;9.20;4.28;;;;;;;23.39;39.55;102121.09;6127269;23;20016;-94
2022/08/29 08:45:41;;;;;;;10.02;4.20;;;;;;;23.53;39.97;102141.66;6126346;23;20006;-95
2022/08/29 08:48:10;;;;;;;8.00;3.55;;;;;;;23.37;39.28;102150.03;6151072;23;20010;-94
2022/08/29 08:50:50;;;;;;;5.18;3.05;;;;;;;22.94;39.53;102119.91;6124010;23;20010;-93
2022/08/29 08:53:22;;;;;;;6.55;2.92;;;;;;;22.90;40.15;102131.91;6124826;23;20291;-94
2022/08/29 08:55:53;;;;;;;5.05;2.90;;;;;;;22.93;39.86;102137.06;6123379;23;20013;-95
2022/08/29 08:58:33;;;;;;;7.05;3.10;;;;;;;22.94;39.44;102119.03;6123784;23;20005;-94
2022/08/29 09:01:19;;;;;;;7.63;2.53;;;;;;;22.94;39.15;102119.03;6155249;23;20001;-94
2022/08/29 09:07:42;;;;;;;5.80;2.63;;;;;;;23.90;37.27;102126.28;6154122;23;20008;-94
2022/08/29 09:10:45;;;;;;;7.75;2.83;;;;;;;24.09;37.24;102122.19;6093917;23;20010;-96
2022/08/29 09:13:42;;;;;;;7.05;2.60;;;;;;;24.39;36.94;102149.56;6129165;23;20092;-96
2022/08/29 09:18:46;;;;;;;4.43;2.70;;;;;;;24.45;36.72;102139.25;6125528;23;20036;-91
2022/08/29 09:21:18;;;;;;;5.30;2.67;;;;;;;24.45;36.41;102147.38;6125517;23;20068;-92
2022/08/29 09:23:58;;;;;;;5.07;2.83;;;;;;;24.52;36.93;102135.06;6123839;23;20068;-92
2022/08/29 09:26:26;;;;;;;5.10;3.10;;;;;;;24.62;36.28;102155.00;6122780;23;20085;-93
2022/08/29 09:28:52;;;;;;;5.80;3.17;;;;;;;24.35;36.22;102145.34;6124052;23;20013;-92
2022/08/29 09:31:31;;;;;;;5.68;3.40;;;;;;;24.28;38.17;102157.59;6124304;23;20386;-92
2022/08/29 09:34:01;;;;;;;8.02;3.33;;;;;;;23.91;38.12;102154.16;6122001;23;20426;-91
2022/08/29 09:36:43;;;;;;;8.93;3.50;;;;;;;23.83;39.07;102160.16;6125378;23;20044;-91
2022/08/29 09:39:12;;;;;;;7.70;3.13;;;;;;;23.72;38.61;102176.28;6126083;23;20013;-93
2022/08/29 09:41:38;;;;;;;5.68;2.90;;;;;;;23.57;37.22;102163.91;6124236;23;20426;-93
2022/08/29 09:44:05;;;;;;;6.45;3.20;;;;;;;23.51;38.58;102170.63;6124388;23;20006;-91
2022/08/29 09:46:31;;;;;;;7.97;3.45;;;;;;;23.36;38.79;102167.22;6122786;23;20006;-91
2022/08/29 09:48:56;;;;;;;9.60;3.63;;;;;;;23.27;39.45;102169.69;6121979;23;20020;-91
2022/08/29 09:51:29;;;;;;;10.33;3.63;;;;;;;23.40;39.38;102168.69;6124771;23;20017;-93
2022/08/29 09:54:24;;;;;;;7.22;3.28;;;;;;;23.67;38.66;102168.53;6125601;23;20245;-93
2022/08/29 09:56:53;;;;;;;6.60;3.50;;;;;;;24.02;37.96;102161.47;6155123;23;20005;-96
2022/08/29 09:59:34;;;;;;;7.00;3.53;;;;;;;24.59;38.09;102155.25;6128639;23;20425;-92
2022/08/29 10:02:29;;;;;;;6.25;3.22;;;;;;;25.43;36.44;102160.19;6125309;23;20032;-92
2022/08/29 10:05:08;;;;;;;5.90;2.83;;;;;;;25.68;36.18;102145.47;6126620;23;20009;-92
2022/08/29 10:07:49;;;;;;;6.90;3.20;;;;;;;26.31;34.82;102144.72;6126899;23;20001;-92
2022/08/29 10:10:22;;;;;;;6.55;3.17;;;;;;;27.18;33.21;102148.78;6124873;23;20088;-92
2022/08/29 10:12:56;;;;;;;5.32;2.88;;;;;;;26.73;33.98;102153.72;6127838;23;20433;-92
2022/08/29 10:15:27;;;;;;;6.43;3.00;;;;;;;26.05;34.97;102146.94;6127526;23;20009;-92
2022/08/29 10:18:23;;;;;;;5.60;3.30;;;;;;;25.25;35.43;102134.63;6150464;23;20006;-92
2022/08/29 10:21:11;;;;;;;10.02;3.50;;;;;;;25.09;36.82;102156.66;6124275;23;20048;-92
2022/08/29 10:24:00;;;;;;;6.75;2.92;;;;;;;25.15;36.95;102144.47;6126165;23;20029;-92
2022/08/29 10:26:43;;;;;;;5.97;3.17;;;;;;;25.54;36.16;102156.59;6126336;23;20001;-92
2022/08/29 10:29:25;;;;;;;7.60;3.03;;;;;;;25.80;35.25;102150.88;6152623;23;20033;-93
2022/08/29 10:31:56;;;;;;;8.68;3.20;;;;;;;25.70;34.70;102143.50;6125857;23;20489;-92
2022/08/29 10:34:43;;;;;;;4.93;3.23;;;;;;;25.33;34.62;102150.25;6125556;23;20453;-93
2022/08/29 10:37:40;;;;;;;8.23;2.95;;;;;;;25.01;36.32;102155.53;6126347;23;20260;-92
2022/08/29 10:40:21;;;;;;;7.88;3.20;;;;;;;24.85;36.52;102150.47;6103541;23;20006;-91
2022/08/29 10:42:51;;;;;;;6.15;2.92;;;;;;;24.86;35.92;102134.13;6126508;23;20307;-91
2022/08/29 10:45:34;;;;;;;7.38;3.25;;;;;;;24.99;36.40;102133.13;6127108;23;20057;-92
2022/08/29 10:48:10;;;;;;;8.15;3.08;;;;;;;25.49;35.26;102137.16;6127063;23;20319;-92
2022/08/29 10:50:54;;;;;;;8.43;3.65;;;;;;;25.86;34.93;102142.22;6150882;23;20063;-93
2022/08/29 10:53:28;;;;;;;6.20;3.20;;;;;;;26.71;32.27;102131.28;6124746;23;20013;-93
2022/08/29 10:56:20;;;;;;;6.03;2.83;;;;;;;27.29;32.06;102128.81;6125409;23;20017;-92
2022/08/29 10:59:06;;;;;;;5.30;2.88;;;;;;;27.93;32.02;102131.06;6125104;23;20002;-92
2022/08/29 11:01:34;;;;;;;6.20;3.25;;;;;;;28.27;30.68;102118.84;6125558;23;20037;-92
2022/08/29 11:04:06;;;;;;;5.50;3.25;;;;;;;28.71;29.98;102111.88;6124605;23;20009;-92
2022/08/29 11:06:43;;;;;;;7.50;3.53;;;;;;;29.11;29.01;102110.72;6124865;23;20013;-92
2022/08/29 11:09:28;;;;;;;5.68;2.72;;;;;;;29.04;30.27;102107.72;6152060;23;20029;-92
2022/08/29 11:12:14;;;;;;;6.95;3.78;;;;;;;28.85;30.02;102116.81;6151571;23;20005;-93
2022/08/29 11:14:55;;;;;;;6.70;3.03;;;;;;;28.29;30.86;102098.66;6152681;23;20001;-92
2022/08/29 11:17:25;;;;;;;24.80;3.55;;;;;;;28.84;29.29;102103.38;6121523;23;20009;-91
2022/08/29 11:20:01;;;;;;;8.07;2.97;;;;;;;28.93;29.04;102110.63;6150562;23;20021;-92
2022/08/29 11:22:39;;;;;;;6.75;3.30;;;;;;;28.96;30.49;102110.38;6122036;23;20039;-92
2022/08/29 11:25:12;;;;;;;7.47;3.10;;;;;;;28.89;29.96;102109.22;6148900;23;20253;-92
2022/08/29 11:28:02;;;;;;;4.72;2.75;;;;;;;28.78;29.95;102102.09;6125810;23;20001;-91
2022/08/29 11:30:44;;;;;;;5.38;2.67;;;;;;;29.07;29.84;102092.97;6124533;23;20060;-92
2022/08/29 11:33:17;;;;;;;;;;;;;;;29.06;30.83;102093.97;6125990;23;20096;-91
2022/08/29 11:36:11;;;;;;;7.10;3.25;;;;;;;29.31;30.19;102090.50;6153400;23;19904;-91
2022/08/29 11:39:14;;;;;;;8.10;2.92;;;;;;;29.72;28.88;102080.03;6152639;23;20459;-91
2022/08/29 11:41:46;;;;;;;4.97;3.47;;;;;;;29.45;28.05;102083.66;6151649;23;20001;-92
2022/08/29 11:44:25;;;;;;;6.13;3.00;;;;;;;29.69;28.60;102072.16;6158983;23;20437;-91
2022/08/29 11:46:50;;;;;;;9.75;3.55;;;;;;;29.95;27.13;102070.34;6151511;23;20464;-92
2022/08/29 11:49:47;;;;;;;6.03;2.80;;;;;;;30.60;28.61;102080.00;6126862;23;20014;-92
2022/08/29 11:52:23;;;;;;;7.38;3.58;;;;;;;30.73;26.41;102072.22;6125139;23;20006;-95
2022/08/29 12:00:42;;;;;;;6.75;3.22;;;;;;;30.07;27.94;102067.34;6183681;22;20407;-93
2022/08/29 12:03:44;;;;;;;5.15;2.53;;;;;;;29.47;29.21;102078.91;6186621;23;20005;-94
2022/08/29 12:06:28;;;;;;;6.28;2.70;;;;;;;28.61;28.99;102060.19;6186030;23;20368;-94
2022/08/29 12:09:16;;;;;;;6.35;3.00;;;;;;;28.39;29.69;102071.44;6186220;23;20373;-94
2022/08/29 12:12:03;;;;;;;5.93;3.03;;;;;;;28.77;29.32;102070.44;6186988;23;20428;-93
2022/08/29 12:14:50;;;;;;;8.82;3.47;;;;;;;29.62;29.20;102058.31;6211763;23;20004;-93
2022/08/29 12:17:16;;;;;;;4.32;2.72;;;;;;;29.44;28.38;102054.72;6161513;23;20111;-94
2022/08/29 12:19:59;;;;;;;8.83;3.20;;;;;;;29.63;28.04;102070.94;6184897;23;20556;-94
2022/08/29 12:22:43;;;;;;;6.43;3.00;;;;;;;29.88;28.91;102066.53;6185813;23;20244;-93
2022/08/29 12:25:27;;;;;;;5.18;2.90;;;;;;;30.48;27.20;102072.09;6185100;23;20008;-94
2022/08/29 12:28:22;;;;;;;7.32;3.13;;;;;;;30.82;28.24;102065.78;6185941;23;20008;-93
2022/08/29 12:30:57;;;;;;;6.07;3.35;;;;;;;31.09;25.85;102072.03;6210873;23;20004;-94
2022/08/29 12:33:22;;;;;;;7.72;3.13;;;;;;;30.95;26.01;102063.44;6185529;23;20008;-93
2022/08/29 12:36:07;;;;;;;5.60;2.90;;;;;;;30.32;26.74;102066.53;6186673;23;20005;-94
2022/08/29 12:39:06;;;;;;;7.95;3.45;;;;;;;29.39;28.72;102067.94;6186854;23;20008;-94
2022/08/29 12:41:50;;;;;;;8.68;3.10;;;;;;;28.84;29.15;102046.19;6214653;23;20000;-95
2022/08/29 12:44:25;;;;;;;4.53;3.03;;;;;;;28.82;29.30;102048.19;6186860;23;20421;-94
2022/08/29 12:47:01;;;;;;;6.28;2.83;;;;;;;28.23;29.02;102042.97;6186252;23;20043;-96
2022/08/29 12:49:39;;;;;;;6.22;3.40;;;;;;;28.16;29.65;102030.13;6186676;23;20001;-93
2022/08/29 12:52:14;;;;;;;5.55;3.05;;;;;;;28.94;28.97;102026.06;6185718;23;20010;-93
2022/08/29 12:54:40;;;;;;;7.53;3.00;;;;;;;29.66;27.45;102016.13;6162675;23;20009;-92
2022/08/29 12:57:16;;;;;;;6.22;3.40;;;;;;;29.88;27.32;102016.59;6163514;23;20344;-93
2022/08/29 12:59:52;;;;;;;6.07;2.97;;;;;;;29.53;28.09;102036.56;6163913;23;20428;-94
2022/08/29 13:02:31;;;;;;;5.50;2.78;;;;;;;29.19;29.13;102031.81;6188239;23;20023;-94
2022/08/29 13:04:56;;;;;;;7.43;3.08;;;;;;;29.45;28.53;102023.72;6188458;23;20005;-93
2022/08/29 13:07:23;;;;;;;10.55;3.10;;;;;;;29.82;27.33;102009.06;6187455;23;20421;-93
2022/08/29 13:09:57;;;;;;;4.75;2.97;;;;;;;30.24;27.09;102020.97;6187993;23;20004;-94
2022/08/29 13:12:49;;;;;;;7.80;3.28;;;;;;;30.51;27.02;102013.59;6186843;23;20100;-94
2022/08/29 13:15:21;;;;;;;6.13;3.25;;;;;;;30.69;26.67;102014.34;6182193;23;20047;-93
2022/08/29 13:17:49;;;;;;;7.35;2.55;;;;;;;30.45;26.42;101998.75;6188043;23;20011;-94
2022/08/29 13:20:39;;;;;;;5.20;3.05;;;;;;;30.60;26.55;102014.50;6188898;23;20020;-94
2022/08/29 13:23:04;;;;;;;6.47;2.97;;;;;;;30.31;27.40;102010.28;6188490;23;20083;-93
2022/08/29 13:25:31;;;;;;;6.20;3.10;;;;;;;30.45;25.68;102000.59;6212597;23;20028;-93
2022/08/29 13:27:57;;;;;;;6.45;2.88;;;;;;;30.48;26.19;101994.81;6214560;23;20232;-93
2022/08/29 13:30:24;;;;;;;5.13;3.10;;;;;;;30.72;25.17;102003.13;6216198;23;20032;-93
2022/08/29 13:32:51;;;;;;;4.75;2.47;;;;;;;30.67;24.99;101990.97;6190091;23;20012;-94
2022/08/29 13:35:26;;;;;;;5.40;2.67;;;;;;;30.76;25.00;102009.09;6190517;23;20000;-93
2022/08/29 13:38:20;;;;;;;5.50;2.78;;;;;;;31.13;25.61;102021.50;6165343;23;20608;-95
2022/08/29 13:40:48;;;;;;;6.28;2.83;;;;;;;30.95;25.18;102008.81;6189218;23;20577;-94
2022/08/29 13:43:35;;;;;;;6.40;2.67;;;;;;;31.00;25.38;102006.44;6189154;23;20007;-93
2022/08/29 13:46:20;;;;;;;5.85;3.00;;;;;;;30.68;24.99;102015.38;6216790;23;20005;-94
2022/08/29 13:49:07;;;;;;;8.82;2.78;;;;;;;30.96;25.18;101985.97;6166047;23;20004;-93
2022/08/29 13:51:32;;;;;;;5.55;2.78;;;;;;;30.70;24.07;101976.97;6190287;23;20023;-94
2022/08/29 13:53:58;;;;;;;4.68;2.67;;;;;;;30.19;25.16;101987.00;6191209;23;20012;-94
2022/08/29 13:56:30;;;;;;;3.03;2.22;;;;;;;30.05;25.28;101982.97;6190221;23;20004;-93
2022/08/29 13:58:56;;;;;;;5.30;2.63;;;;;;;30.15;27.01;101978.28;6215889;23;20004;-93
2022/08/29 14:01:23;;;;;;;5.70;2.80;;;;;;;30.65;25.46;101972.03;6146168;23;20024;-93
2022/08/29 14:03:50;;;;;;;8.23;3.28;;;;;;;30.30;24.43;101959.44;6160352;23;20040;-93
2022/08/29 14:06:18;;;;;;;7.40;2.78;;;;;;;30.69;25.14;101959.75;6136644;23;20009;-93
2022/08/29 14:08:53;;;;;;;5.32;3.17;;;;;;;30.75;25.55;101969.19;6162563;23;19997;-94
2022/08/29 14:11:19;;;;;;;5.82;2.70;;;;;;;31.36;25.13;101967.06;6159666;23;20005;-93
2022/08/29 14:13:46;;;;;;;5.88;2.83;;;;;;;31.99;24.22;101952.69;6159837;23;20513;-94
2022/08/29 14:16:12;;;;;;;7.25;3.35;;;;;;;32.38;23.48;101968.28;6159518;23;20037;-93
2022/08/29 14:18:38;;;;;;;6.60;3.00;;;;;;;32.78;23.46;101963.63;6185756;23;20032;-94
2022/08/29 14:21:04;;;;;;;4.70;2.80;;;;;;;32.60;23.50;101967.50;6158911;23;20067;-93